Time;durP1;ratioP1;P1;durP2;ratioP2;P2;SDS_P1;SDS_P2;PMS_P1;PMS_P2;Temp;Humidity;BMP_temperature;BMP_pressure;BME280_temperature;BME280_humidity;BME280_pressure;Samples;Min_cycle;Max_cycle;Signal;HPM_P1;HPM_P2
2023/05/06 00:01:19;;;;;;;;;;;16.80;99.90;;;;;;5070760;28;20025;-70
2023/05/06 00:03:44;;;;;;;;;;;16.90;99.90;;;;;;5070319;28;20301;-69
2023/05/06 00:06:10;;;;;;;6.43;3.30;;;16.70;99.90;;;;;;5069171;28;19915;-70
2023/05/06 00:08:36;;;;;;;5.97;3.37;;;16.70;99.90;;;;;;5069385;28;20057;-69
2023/05/06 00:11:02;;;;;;;4.87;3.20;;;16.60;99.90;;;;;;5069309;28;20060;-69
2023/05/06 00:13:29;;;;;;;4.23;3.07;;;16.60;99.90;;;;;;5069094;28;20282;-68
2023/05/06 00:15:55;;;;;;;5.83;3.60;;;16.60;99.90;;;;;;5067291;28;20359;-70
2023/05/06 00:18:22;;;;;;;6.83;3.00;;;16.60;99.90;;;;;;5068721;28;20079;-71
2023/05/06 00:20:49;;;;;;;4.65;3.40;;;16.60;99.90;;;;;;5067117;28;20346;-68
2023/05/06 00:23:15;;;;;;;4.35;3.13;;;16.60;99.90;;;;;;5101129;28;20028;-71
2023/05/06 00:25:41;;;;;;;5.50;3.50;;;16.60;99.90;;;;;;5069005;28;20023;-70
2023/05/06 00:28:07;;;;;;;5.13;3.40;;;16.60;99.90;;;;;;5069051;28;20529;-69
2023/05/06 00:30:33;;;;;;;6.17;2.77;;;16.50;99.90;;;;;;5069099;28;20539;-69
2023/05/06 00:32:59;;;;;;;4.95;3.22;;;16.50;99.90;;;;;;5069329;28;20299;-69
2023/05/06 00:35:25;;;;;;;5.30;3.63;;;16.50;99.90;;;;;;5068892;28;20349;-70
2023/05/06 00:38:09;;;;;;;5.10;3.53;;;16.50;99.90;;;;;;5068676;28;20758;-69
2023/05/06 00:40:35;;;;;;;5.95;3.10;;;16.40;99.90;;;;;;5068866;28;20086;-70
2023/05/06 00:43:02;;;;;;;5.05;3.20;;;16.40;99.90;;;;;;5069056;28;20098;-70
2023/05/06 00:45:28;;;;;;;4.65;3.10;;;16.40;99.90;;;;;;5068653;28;20087;-69
2023/05/06 00:47:56;;;;;;;6.10;3.53;;;16.50;99.90;;;;;;5068704;28;20020;-70
2023/05/06 00:50:22;;;;;;;9.05;3.20;;;16.50;99.90;;;;;;5068615;28;20064;-68
2023/05/06 00:52:49;;;;;;;4.68;3.13;;;16.50;99.90;;;;;;5068909;28;20021;-70
2023/05/06 00:55:17;;;;;;;5.80;2.80;;;16.50;99.90;;;;;;5068694;28;20032;-68
2023/05/06 00:57:43;;;;;;;3.90;3.17;;;16.50;99.90;;;;;;5068751;28;20306;-71
2023/05/06 01:00:10;;;;;;;4.63;3.40;;;16.60;99.90;;;;;;5068744;28;20056;-69
2023/05/06 01:02:36;;;;;;;6.43;3.00;;;16.60;99.90;;;;;;5068685;28;20020;-70
2023/05/06 01:05:03;;;;;;;5.47;2.95;;;16.60;99.90;;;;;;5068695;28;20040;-71
2023/05/06 01:07:41;;;;;;;;;;;16.50;99.90;;;;;;5069243;28;20044;-70
2023/05/06 01:10:12;;;;;;;5.07;2.97;;;16.50;99.90;;;;;;5068634;28;19908;-69
2023/05/06 01:13:08;;;;;;;5.70;3.10;;;16.50;99.90;;;;;;5068516;28;20082;-71
2023/05/06 01:16:07;;;;;;;5.18;2.90;;;16.50;99.90;;;;;;5066768;28;20128;-69
2023/05/06 01:18:35;;;;;;;3.90;3.05;;;16.60;99.90;;;;;;5006113;28;20045;-70
2023/05/06 01:21:03;;;;;;;4.75;3.47;;;16.50;99.90;;;;;;5005957;28;20049;-70
2023/05/06 01:23:48;;;;;;;5.07;3.35;;;16.50;99.90;;;;;;5006257;28;20057;-69
2023/05/06 01:26:14;;;;;;;6.45;3.65;;;16.50;99.90;;;;;;5007341;28;20111;-71
2023/05/06 01:28:40;;;;;;;4.67;2.90;;;16.50;99.90;;;;;;5010131;28;20053;-70
2023/05/06 01:31:16;;;;;;;6.37;3.40;;;16.40;99.90;;;;;;5010129;28;20363;-70
2023/05/06 01:34:19;;;;;;;7.88;3.42;;;16.40;99.90;;;;;;5009873;28;20030;-69
2023/05/06 01:36:56;;;;;;;4.82;3.47;;;16.30;99.90;;;;;;5009617;28;20060;-71
2023/05/06 01:39:28;;;;;;;4.20;3.08;;;16.30;99.90;;;;;;5009746;28;20541;-70
2023/05/06 01:41:58;;;;;;;4.65;3.20;;;16.20;99.90;;;;;;5009750;28;20084;-70
2023/05/06 01:44:28;;;;;;;4.38;3.33;;;16.20;99.90;;;;;;5009785;28;20034;-69
2023/05/06 01:46:55;;;;;;;4.60;3.20;;;16.20;99.90;;;;;;5009556;28;20553;-69
2023/05/06 01:49:24;;;;;;;5.22;3.30;;;16.10;99.90;;;;;;5009415;28;20119;-71
2023/05/06 01:51:51;;;;;;;5.13;3.55;;;16.10;99.90;;;;;;5009361;28;20386;-71
2023/05/06 01:54:18;;;;;;;5.95;3.55;;;16.10;99.90;;;;;;5033573;28;20039;-71
2023/05/06 01:56:45;;;;;;;4.72;3.45;;;16.10;99.90;;;;;;5051524;28;20021;-69
2023/05/06 01:59:11;;;;;;;5.30;3.88;;;16.00;99.90;;;;;;5051264;28;20086;-70
2023/05/06 02:01:37;;;;;;;8.23;3.78;;;16.00;99.90;;;;;;5051697;28;20090;-70
2023/05/06 02:04:03;;;;;;;6.13;3.57;;;16.00;99.90;;;;;;5051583;28;20028;-71
2023/05/06 02:06:29;;;;;;;6.20;3.73;;;16.00;99.90;;;;;;5051445;28;20312;-71
2023/05/06 02:08:55;;;;;;;7.85;3.50;;;16.00;99.90;;;;;;5051397;28;20071;-70
2023/05/06 02:11:21;;;;;;;5.40;3.50;;;16.00;99.90;;;;;;5049888;28;20480;-71
2023/05/06 02:13:47;;;;;;;6.20;3.90;;;16.00;99.90;;;;;;5051326;28;20036;-70
2023/05/06 02:16:13;;;;;;;4.57;3.40;;;16.00;99.90;;;;;;5051462;28;20271;-71
2023/05/06 02:18:40;;;;;;;6.00;3.53;;;16.10;99.90;;;;;;5049248;28;20429;-71
2023/05/06 02:21:07;;;;;;;4.40;3.28;;;16.10;99.90;;;;;;5066393;28;20029;-71
2023/05/06 02:23:33;;;;;;;6.00;3.17;;;16.20;99.90;;;;;;5071055;28;20093;-71
2023/05/06 02:25:59;;;;;;;4.90;3.50;;;16.20;99.90;;;;;;5071026;28;20082;-71
2023/05/06 02:28:25;;;;;;;4.63;3.00;;;16.20;99.90;;;;;;5070864;28;20426;-71
2023/05/06 02:30:57;;;;;;;5.00;3.00;;;16.20;99.90;;;;;;5070640;28;20020;-70
2023/05/06 02:33:24;;;;;;;5.55;3.50;;;16.10;99.90;;;;;;5070806;28;20746;-70
2023/05/06 02:35:50;;;;;;;5.68;3.40;;;16.10;99.90;;;;;;5070670;28;20025;-71
2023/05/06 02:38:17;;;;;;;6.03;3.65;;;15.90;99.90;;;;;;5070521;28;20372;-68
2023/05/06 02:40:43;;;;;;;6.57;3.50;;;15.80;99.90;;;;;;5103064;28;20068;-69
2023/05/06 02:43:09;;;;;;;4.60;3.20;;;15.80;99.90;;;;;;5071010;28;20020;-68
2023/05/06 02:45:35;;;;;;;6.60;3.50;;;15.70;99.90;;;;;;5063593;28;20310;-70
2023/05/06 02:48:01;;;;;;;5.57;3.90;;;15.60;99.90;;;;;;5072177;28;20058;-68
2023/05/06 02:50:27;;;;;;;5.07;3.40;;;15.60;99.90;;;;;;5074506;28;20403;-69
2023/05/06 02:52:53;;;;;;;5.23;3.17;;;15.60;99.90;;;;;;5072423;28;20096;-70
2023/05/06 02:55:20;;;;;;;5.00;3.50;;;15.70;99.90;;;;;;5069436;28;20115;-69
2023/05/06 02:57:46;;;;;;;4.47;2.88;;;15.70;99.90;;;;;;5068674;28;20020;-70
2023/05/06 03:00:12;;;;;;;5.63;3.17;;;15.60;99.90;;;;;;5073144;28;20032;-69
2023/05/06 03:02:38;;;;;;;4.60;3.25;;;15.60;99.90;;;;;;5073325;28;20059;-68
2023/05/06 03:05:05;;;;;;;3.90;2.97;;;15.60;99.90;;;;;;5073838;28;20028;-70
2023/05/06 03:07:31;;;;;;;5.07;3.50;;;15.60;99.90;;;;;;5072091;28;20293;-70
2023/05/06 03:09:57;;;;;;;5.13;3.67;;;15.60;99.90;;;;;;5072184;28;20024;-70
2023/05/06 03:12:23;;;;;;;9.57;3.77;;;15.60;99.90;;;;;;5072680;28;20278;-68
2023/05/06 03:14:49;;;;;;;5.43;3.28;;;15.60;99.90;;;;;;5072433;28;20032;-70
2023/05/06 03:17:15;;;;;;;6.83;3.80;;;15.70;99.90;;;;;;5068868;28;20078;-69
2023/05/06 03:19:41;;;;;;;4.67;3.27;;;15.70;99.90;;;;;;5101865;28;20468;-71
2023/05/06 03:22:08;;;;;;;5.90;3.77;;;15.80;99.90;;;;;;5070271;28;20456;-69
2023/05/06 03:24:34;;;;;;;5.25;3.45;;;15.80;99.90;;;;;;5103812;28;20387;-71
2023/05/06 03:27:00;;;;;;;4.60;3.60;;;15.70;99.90;;;;;;5071124;28;20021;-71
2023/05/06 03:29:26;;;;;;;5.53;3.70;;;15.70;99.90;;;;;;5071221;28;20273;-70
2023/05/06 03:31:55;;;;;;;6.43;4.20;;;15.70;99.90;;;;;;5071384;28;20024;-70
2023/05/06 03:34:22;;;;;;;5.28;3.75;;;15.70;99.90;;;;;;5071426;28;20337;-68
2023/05/06 03:36:48;;;;;;;5.18;3.47;;;15.60;99.90;;;;;;5070899;28;20471;-68
2023/05/06 03:39:14;;;;;;;4.83;3.43;;;15.60;99.90;;;;;;5071311;28;20108;-69
2023/05/06 03:41:40;;;;;;;7.27;3.67;;;15.50;99.90;;;;;;5071035;28;20105;-70
2023/05/06 03:44:06;;;;;;;4.60;3.28;;;15.50;99.90;;;;;;5071488;28;20385;-69
2023/05/06 03:46:32;;;;;;;5.80;3.57;;;15.40;99.90;;;;;;5069521;28;20036;-70
2023/05/06 03:48:59;;;;;;;7.23;3.43;;;15.40;99.90;;;;;;5070588;28;20112;-70
2023/05/06 03:51:26;;;;;;;5.43;3.72;;;15.40;99.90;;;;;;5078296;28;20115;-70
2023/05/06 03:53:52;;;;;;;6.80;3.55;;;15.40;99.90;;;;;;5089888;28;20019;-69
2023/05/06 03:56:20;;;;;;;5.93;3.50;;;15.40;99.90;;;;;;5090176;28;20030;-70
2023/05/06 03:58:46;;;;;;;7.78;3.58;;;15.50;99.90;;;;;;5077313;28;20290;-69
2023/05/06 04:01:12;;;;;;;7.73;3.60;;;15.50;99.90;;;;;;5072290;28;20122;-70
2023/05/06 04:03:38;;;;;;;5.50;3.55;;;15.60;99.90;;;;;;5077777;28;20027;-69
2023/05/06 04:06:05;;;;;;;5.07;3.83;;;15.70;99.90;;;;;;5089349;28;20458;-70
2023/05/06 04:08:31;;;;;;;;;;;15.70;99.90;;;;;;5091681;28;20024;-69
2023/05/06 04:11:02;;;;;;;5.22;3.22;;;15.70;99.90;;;;;;5091707;28;19914;-69
2023/05/06 04:13:28;;;;;;;7.05;3.63;;;15.70;99.90;;;;;;5091184;28;20082;-69
2023/05/06 04:15:55;;;;;;;7.35;3.33;;;15.70;99.90;;;;;;5072012;28;20493;-68
2023/05/06 04:18:21;;;;;;;4.85;3.28;;;15.80;99.90;;;;;;5071515;28;20119;-70
2023/05/06 04:20:47;;;;;;;6.53;3.80;;;15.80;99.90;;;;;;5071674;28;20119;-69
2023/05/06 04:23:14;;;;;;;5.80;3.42;;;15.70;99.90;;;;;;5071996;28;20384;-69
2023/05/06 04:25:41;;;;;;;5.38;3.65;;;15.70;99.90;;;;;;5071625;28;20090;-69
2023/05/06 04:28:13;;;;;;;5.20;4.00;;;15.60;99.90;;;;;;5070289;28;20052;-67
2023/05/06 04:30:40;;;;;;;6.10;4.03;;;15.60;99.90;;;;;;5071698;28;20503;-69
2023/05/06 04:33:06;;;;;;;7.50;3.88;;;15.60;99.90;;;;;;5070337;28;20425;-69
2023/05/06 04:35:33;;;;;;;5.38;3.67;;;15.60;99.90;;;;;;5071727;28;20376;-70
2023/05/06 04:37:59;;;;;;;7.80;3.92;;;15.60;99.90;;;;;;5071553;28;20020;-70
2023/05/06 04:40:27;;;;;;;8.23;3.95;;;15.60;99.90;;;;;;5071836;28;20025;-69
2023/05/06 04:42:53;;;;;;;5.80;3.33;;;15.60;99.90;;;;;;5071457;28;20226;-68
2023/05/06 04:45:19;;;;;;;4.25;3.08;;;15.50;99.90;;;;;;5071687;28;20028;-69
2023/05/06 04:47:45;;;;;;;7.00;3.70;;;15.50;99.90;;;;;;5071643;28;20025;-69
2023/05/06 04:50:11;;;;;;;4.80;3.63;;;15.60;99.90;;;;;;5071399;28;20029;-69
2023/05/06 04:52:37;;;;;;;7.28;3.97;;;15.70;99.90;;;;;;5069876;28;20035;-67
2023/05/06 04:55:04;;;;;;;7.07;4.03;;;15.70;99.90;;;;;;5069913;28;20036;-70
2023/05/06 04:57:31;;;;;;;;;;;15.70;99.90;;;;;;5079797;28;20103;-70
2023/05/06 04:59:57;;;;;;;6.72;4.45;;;15.80;99.90;;;;;;5091544;28;19911;-70
2023/05/06 05:02:23;;;;;;;5.22;3.40;;;15.90;99.90;;;;;;5094683;28;20024;-70
2023/05/06 05:04:49;;;;;;;4.93;3.70;;;16.00;99.90;;;;;;5095275;28;20052;-70
2023/05/06 05:07:16;;;;;;;6.00;3.60;;;16.10;99.90;;;;;;5095070;28;20731;-80
2023/05/06 05:09:42;;;;;;;8.27;4.00;;;16.20;99.90;;;;;;5095227;28;20107;-68
2023/05/06 05:12:08;;;;;;;5.73;3.47;;;16.60;99.90;;;;;;5095640;28;20086;-67
2023/05/06 05:14:34;;;;;;;4.20;3.20;;;18.00;99.90;;;;;;5093703;28;20023;-69
2023/05/06 05:17:00;;;;;;;6.43;3.40;;;19.40;99.90;;;;;;5082103;28;20273;-68
2023/05/06 05:19:26;;;;;;;5.07;3.10;;;20.30;99.90;;;;;;5074732;28;20294;-69
2023/05/06 05:21:52;;;;;;;4.72;3.10;;;21.20;99.90;;;;;;5073526;28;20408;-70
2023/05/06 05:24:18;;;;;;;6.68;2.90;;;21.50;99.90;;;;;;5074672;28;20085;-68
2023/05/06 05:26:44;;;;;;;5.40;2.72;;;22.80;99.90;;;;;;5074469;28;20059;-69
2023/05/06 05:29:10;;;;;;;4.60;2.67;;;23.10;99.90;;;;;;5074710;28;20024;-69
2023/05/06 05:31:36;;;;;;;7.65;3.05;;;22.30;99.90;;;;;;5073069;28;20025;-69
2023/05/06 05:34:02;;;;;;;5.97;2.80;;;22.80;99.90;;;;;;5074578;28;20024;-69
2023/05/06 05:36:28;;;;;;;3.90;2.50;;;22.90;99.90;;;;;;5074178;28;20085;-69
2023/05/06 05:38:54;;;;;;;4.65;2.60;;;23.80;99.90;;;;;;5074152;28;20460;-69
2023/05/06 05:41:20;;;;;;;4.88;2.75;;;24.50;99.90;;;;;;5074286;28;20024;-68
2023/05/06 05:43:46;;;;;;;3.92;2.33;;;25.60;99.90;;;;;;5074618;28;20048;-70
2023/05/06 05:46:13;;;;;;;3.08;2.40;;;25.80;99.90;;;;;;5074258;28;20492;-68
2023/05/06 05:48:38;;;;;;;;;;;25.60;99.90;;;;;;5074364;28;20070;-68
2023/05/06 05:51:06;;;;;;;;;;;24.40;99.90;;;;;;5072413;28;19908;-69
2023/05/06 05:53:32;;;;;;;3.72;2.33;;;23.60;99.90;;;;;;5071825;28;19934;-70
2023/05/06 05:55:58;;;;;;;5.00;2.63;;;24.40;99.90;;;;;;5071762;28;20107;-69
2023/05/06 05:58:24;;;;;;;6.85;2.42;;;25.10;99.90;;;;;;5105498;28;20021;-70
2023/05/06 06:00:51;;;;;;;4.53;2.50;;;27.70;99.90;;;;;;5072770;28;20037;-71
2023/05/06 06:03:17;;;;;;;4.20;2.30;;;28.30;99.90;;;;;;5072483;28;20048;-70
2023/05/06 06:05:44;;;;;;;6.75;2.50;;;29.90;99.90;;;;;;5073005;28;20451;-69
2023/05/06 06:08:11;;;;;;;6.03;2.30;;;28.30;99.90;;;;;;5072682;28;20384;-70
2023/05/06 06:10:37;;;;;;;5.75;2.25;;;28.40;99.90;;;;;;5072828;28;20407;-69
2023/05/06 06:13:04;;;;;;;3.95;2.40;;;28.50;99.90;;;;;;5072292;28;20523;-71
2023/05/06 06:15:31;;;;;;;7.03;2.60;;;27.10;99.90;;;;;;5072346;28;20452;-70
2023/05/06 06:17:57;;;;;;;5.63;2.45;;;25.80;99.90;;;;;;5071030;28;20021;-70
2023/05/06 06:20:29;;;;;;;3.92;2.40;;;25.90;99.90;;;;;;5070878;28;20044;-68
2023/05/06 06:22:55;;;;;;;4.95;2.58;;;27.50;99.90;;;;;;5072502;28;20021;-71
2023/05/06 06:25:21;;;;;;;4.68;2.50;;;26.30;99.90;;;;;;5072425;28;20063;-67
2023/05/06 06:27:48;;;;;;;5.05;2.40;;;25.90;99.90;;;;;;5072412;28;20190;-71
2023/05/06 06:30:14;;;;;;;7.97;2.58;;;27.80;99.90;;;;;;5072398;28;20093;-72
2023/05/06 06:32:48;;;;;;;;;;;29.80;99.90;;;;;;5073337;28;20541;-71
2023/05/06 06:35:14;;;;;;;5.07;2.38;;;28.90;99.90;;;;;;5073300;28;19960;-72
2023/05/06 06:37:40;;;;;;;;;;;28.90;99.90;;;;;;5073004;28;20024;-71
2023/05/06 06:40:06;;;;;;;7.60;2.65;;;28.20;99.90;;;;;;5072993;28;19912;-72
2023/05/06 06:42:32;;;;;;;6.45;2.50;;;29.20;99.90;;;;;;5073083;28;20032;-69
2023/05/06 06:44:58;;;;;;;4.28;2.35;;;29.80;99.90;;;;;;5072687;28;20150;-70
2023/05/06 06:47:24;;;;;;;;;;;30.80;99.90;;;;;;5073139;28;20112;-70
2023/05/06 06:49:50;;;;;;;5.10;2.10;;;30.90;99.90;;;;;;5072471;28;19991;-71
2023/05/06 06:52:16;;;;;;;;;;;31.20;99.90;;;;;;5072617;28;20104;-70
2023/05/06 06:54:42;;;;;;;3.17;2.05;;;31.60;98.90;;;;;;5072792;28;19905;-69
2023/05/06 06:57:08;;;;;;;4.80;2.00;;;31.10;98.80;;;;;;5072226;28;20083;-70
2023/05/06 06:59:34;;;;;;;4.47;2.20;;;32.20;98.10;;;;;;5072526;28;20119;-70
2023/05/06 07:02:01;;;;;;;5.93;2.40;;;33.30;96.80;;;;;;5072464;28;20103;-70
2023/05/06 07:04:27;;;;;;;6.53;2.45;;;34.40;95.80;;;;;;5072087;28;20037;-71
2023/05/06 07:07:02;;;;;;;7.22;2.50;;;34.60;95.80;;;;;;5072124;28;20100;-71
2023/05/06 07:09:28;;;;;;;9.25;2.22;;;35.60;94.60;;;;;;5072665;28;20473;-70
2023/05/06 07:11:54;;;;;;;5.45;2.15;;;36.20;92.80;;;;;;5072313;28;20054;-70
2023/05/06 07:14:20;;;;;;;4.53;2.38;;;36.90;92.40;;;;;;5072278;28;20024;-71
2023/05/06 07:16:47;;;;;;;6.93;2.50;;;35.30;91.90;;;;;;5072551;28;20021;-72
2023/05/06 07:19:13;;;;;;;3.33;2.00;;;34.50;92.40;;;;;;5071744;28;20105;-69
2023/05/06 07:21:39;;;;;;;7.82;2.00;;;33.70;92.40;;;;;;5071812;28;20029;-71
2023/05/06 07:24:05;;;;;;;10.02;2.05;;;32.50;91.80;;;;;;5071419;28;20457;-72
2023/05/06 07:26:35;;;;;;;3.85;1.90;;;31.60;92.10;;;;;;5072521;28;20027;-71
2023/05/06 07:29:03;;;;;;;4.72;1.85;;;31.20;92.70;;;;;;5072269;28;20118;-72
2023/05/06 07:31:31;;;;;;;7.18;2.20;;;30.80;94.00;;;;;;5072386;28;20029;-71
2023/05/06 07:33:57;;;;;;;7.90;3.90;;;31.10;94.70;;;;;;5072070;28;20020;-71
2023/05/06 07:36:24;;;;;;;6.75;3.80;;;30.20;95.70;;;;;;5071601;28;20033;-71
2023/05/06 07:38:50;;;;;;;5.78;3.78;;;29.80;97.60;;;;;;5104310;28;20029;-72
2023/05/06 07:41:16;;;;;;;8.32;3.60;;;29.20;98.80;;;;;;5071696;28;20036;-72
2023/05/06 07:43:42;;;;;;;;;;;28.90;99.70;;;;;;5072293;28;20020;-72
2023/05/06 07:46:08;;;;;;;8.40;4.20;;;28.80;99.90;;;;;;5071721;28;19970;-71
2023/05/06 07:48:34;;;;;;;;;;;28.70;99.90;;;;;;5070753;28;20124;-71
2023/05/06 07:51:00;;;;;;;18.48;5.22;;;28.60;99.90;;;;;;5071417;28;19966;-71
2023/05/06 07:53:26;;;;;;;;;;;28.50;99.90;;;;;;5070226;28;20029;-72
2023/05/06 07:55:55;;;;;;;7.40;4.63;;;28.60;99.90;;;;;;5070198;28;19915;-70
2023/05/06 07:58:22;;;;;;;6.68;4.50;;;28.40;99.90;;;;;;5070267;28;20028;-72
2023/05/06 08:00:48;;;;;;;6.93;4.50;;;28.50;99.90;;;;;;5071708;28;20036;-71
2023/05/06 08:03:15;;;;;;;6.55;3.72;;;28.50;99.90;;;;;;5071736;28;20538;-72
2023/05/06 08:05:41;;;;;;;16.08;12.88;;;27.70;99.90;;;;;;5071522;28;20025;-71
2023/05/06 08:08:07;;;;;;;9.80;4.80;;;28.00;99.90;;;;;;5071698;28;20372;-71
2023/05/06 08:10:33;;;;;;;11.82;3.65;;;28.00;99.90;;;;;;5071849;28;20058;-72
2023/05/06 08:13:00;;;;;;;7.97;3.20;;;27.80;99.90;;;;;;5071367;28;20035;-72
2023/05/06 08:15:26;;;;;;;5.78;2.78;;;27.90;99.90;;;;;;5071518;28;20036;-71
2023/05/06 08:17:52;;;;;;;5.75;3.20;;;28.30;99.90;;;;;;5071384;28;20021;-70
2023/05/06 08:20:18;;;;;;;15.75;3.30;;;28.60;99.90;;;;;;5071141;28;20526;-69
2023/05/06 08:22:44;;;;;;;8.88;3.10;;;28.40;99.90;;;;;;5071150;28;20025;-71
2023/05/06 08:25:10;;;;;;;7.28;3.33;;;28.20;99.90;;;;;;5071495;28;20167;-71
2023/05/06 08:27:36;;;;;;;5.88;2.90;;;27.70;99.90;;;;;;5072049;28;20063;-71
2023/05/06 08:30:03;;;;;;;9.38;3.55;;;27.10;99.90;;;;;;5071413;28;20476;-71
2023/05/06 08:32:29;;;;;;;6.60;2.97;;;27.00;99.90;;;;;;5071513;28;20017;-72
2023/05/06 08:34:55;;;;;;;7.95;3.10;;;27.10;99.90;;;;;;5071899;28;20035;-72
2023/05/06 08:37:21;;;;;;;5.85;3.10;;;27.00;99.90;;;;;;5075435;28;20021;-71
2023/05/06 08:39:48;;;;;;;10.95;3.45;;;26.90;99.90;;;;;;5075176;28;20036;-72
2023/05/06 08:42:14;;;;;;;4.53;3.00;;;27.20;99.90;;;;;;5075778;28;20166;-71
2023/05/06 08:44:43;;;;;;;6.50;3.35;;;27.60;99.90;;;;;;5108018;28;20025;-72
2023/05/06 08:47:09;;;;;;;8.10;3.58;;;27.80;99.90;;;;;;5108564;28;20052;-71
2023/05/06 08:49:35;;;;;;;7.95;3.17;;;27.60;99.90;;;;;;5075417;28;20024;-72
2023/05/06 08:52:05;;;;;;;9.35;4.07;;;27.10;99.90;;;;;;5074911;28;20020;-71
2023/05/06 08:54:36;;;;;;;12.18;6.35;;;27.00;99.90;;;;;;5075157;28;20390;-72
2023/05/06 08:57:07;;;;;;;11.35;4.47;;;26.70;99.90;;;;;;5075256;28;20333;-72
2023/05/06 08:59:33;;;;;;;9.45;4.15;;;26.50;99.90;;;;;;5074766;28;20039;-70
2023/05/06 09:02:03;;;;;;;9.27;3.58;;;26.50;99.90;;;;;;5074770;28;20048;-70
2023/05/06 09:04:33;;;;;;;10.23;4.22;;;26.40;99.90;;;;;;5074595;28;20108;-70
2023/05/06 09:06:59;;;;;;;8.48;4.60;;;26.50;99.90;;;;;;5074403;28;20032;-69
2023/05/06 09:09:25;;;;;;;8.57;4.60;;;25.60;99.90;;;;;;5074563;28;20112;-73
2023/05/06 09:11:54;;;;;;;8.23;4.32;;;25.40;99.90;;;;;;5074502;28;20044;-73
2023/05/06 09:14:20;;;;;;;5.30;3.92;;;25.60;99.90;;;;;;5074581;28;20104;-71
2023/05/06 09:16:49;;;;;;;8.07;3.80;;;25.60;99.90;;;;;;5073282;28;20124;-72
2023/05/06 09:19:16;;;;;;;11.52;6.35;;;25.40;99.90;;;;;;5074390;28;20477;-72
2023/05/06 09:21:45;;;;;;;13.45;4.32;;;25.60;99.90;;;;;;5074621;28;20029;-71
2023/05/06 09:24:13;;;;;;;7.57;4.13;;;25.60;99.90;;;;;;5074608;28;20017;-73
2023/05/06 09:26:40;;;;;;;8.18;3.85;;;25.00;99.90;;;;;;5074461;28;20020;-71
2023/05/06 09:29:07;;;;;;;8.70;5.05;;;25.00;99.90;;;;;;5075047;28;20465;-71
2023/05/06 09:31:40;;;;;;;8.68;4.15;;;25.20;99.90;;;;;;5074616;28;20029;-72
2023/05/06 09:34:06;;;;;;;6.47;4.57;;;25.30;99.90;;;;;;5074830;28;20101;-72
2023/05/06 09:36:33;;;;;;;9.70;3.95;;;24.70;99.90;;;;;;5074355;28;20468;-71
2023/05/06 09:38:59;;;;;;;14.60;3.97;;;24.80;99.90;;;;;;5066428;28;20037;-71
2023/05/06 09:41:31;;;;;;;7.32;3.65;;;24.30;99.90;;;;;;5064141;28;20638;-71
2023/05/06 09:43:58;;;;;;;8.02;4.15;;;24.50;99.90;;;;;;5064456;28;20377;-72
2023/05/06 09:46:28;;;;;;;6.60;4.22;;;24.20;99.90;;;;;;5061281;28;20437;-72
2023/05/06 09:48:57;;;;;;;10.70;6.85;;;24.20;99.90;;;;;;5054138;28;20032;-72
2023/05/06 09:51:23;;;;;;;11.27;4.90;;;24.20;99.90;;;;;;5073372;28;20025;-72
2023/05/06 09:53:50;;;;;;;10.32;5.68;;;23.80;99.90;;;;;;5074165;28;20116;-70
2023/05/06 09:56:16;;;;;;;10.20;4.50;;;23.80;99.90;;;;;;5072470;28;20412;-71
2023/05/06 09:58:44;;;;;;;5.65;4.35;;;23.90;99.90;;;;;;5073818;28;20025;-71
2023/05/06 10:01:12;;;;;;;6.13;4.47;;;23.80;99.90;;;;;;5074018;28;20087;-70
2023/05/06 10:03:41;;;;;;;6.68;4.30;;;23.60;99.90;;;;;;5073713;28;20166;-72
2023/05/06 10:06:10;;;;;;;8.02;3.53;;;23.30;99.90;;;;;;5073720;28;20024;-72
2023/05/06 10:08:37;;;;;;;7.60;3.90;;;23.50;99.90;;;;;;5074366;28;20020;-73
2023/05/06 10:11:05;;;;;;;8.48;5.07;;;23.70;99.90;;;;;;5074940;28;20360;-74
2023/05/06 10:13:31;;;;;;;13.48;4.60;;;23.80;99.90;;;;;;5075428;28;20055;-73
2023/05/06 10:16:01;;;;;;;13.65;7.50;;;23.80;99.90;;;;;;5074532;28;20017;-72
2023/05/06 10:18:29;;;;;;;11.10;6.00;;;23.60;99.90;;;;;;5074491;28;20490;-74
2023/05/06 10:20:58;;;;;;;8.52;5.30;;;23.60;99.90;;;;;;5071932;28;20032;-71
2023/05/06 10:23:43;;;;;;;7.72;4.47;;;23.60;99.90;;;;;;5072893;28;20098;-72
2023/05/06 10:26:14;;;;;;;11.88;4.30;;;23.60;99.90;;;;;;5072661;28;20131;-71
2023/05/06 10:28:42;;;;;;;7.80;4.07;;;23.60;99.90;;;;;;5072959;28;20052;-70
2023/05/06 10:31:12;;;;;;;8.15;3.97;;;23.60;99.90;;;;;;5073089;28;20492;-71
2023/05/06 10:33:46;;;;;;;6.50;4.47;;;23.40;99.90;;;;;;5072896;28;20073;-72
2023/05/06 10:36:30;;;;;;;5.88;4.40;;;23.30;99.90;;;;;;5072770;28;20499;-72
2023/05/06 10:38:59;;;;;;;6.85;4.20;;;23.40;99.90;;;;;;5071304;28;20487;-72
2023/05/06 10:41:27;;;;;;;8.20;4.13;;;23.30;99.90;;;;;;5071380;28;20035;-73
2023/05/06 10:43:55;;;;;;;6.35;4.13;;;23.30;99.90;;;;;;5072868;28;20369;-71
2023/05/06 10:46:23;;;;;;;6.82;3.95;;;23.30;99.90;;;;;;5073088;28;20031;-72
2023/05/06 10:49:09;;;;;;;11.18;4.30;;;23.20;99.90;;;;;;5072662;28;20035;-72
2023/05/06 10:51:39;;;;;;;7.28;4.20;;;23.50;99.90;;;;;;5072199;28;20111;-74
2023/05/06 10:54:10;;;;;;;5.95;3.95;;;23.40;99.90;;;;;;5072745;28;20036;-75
2023/05/06 10:56:58;;;;;;;7.90;4.22;;;23.30;99.90;;;;;;5072865;28;20481;-76
2023/05/06 10:59:25;;;;;;;6.15;4.07;;;23.40;99.90;;;;;;5060746;28;20067;-75
2023/05/06 11:02:03;;;;;;;8.80;4.63;;;23.70;99.90;;;;;;5072552;28;20063;-73
2023/05/06 11:04:30;;;;;;;10.48;4.35;;;23.70;99.90;;;;;;5072589;28;20043;-72
2023/05/06 11:07:20;;;;;;;5.65;3.95;;;23.60;99.90;;;;;;5071995;28;20109;-73
2023/05/06 11:09:55;;;;;;;7.10;4.38;;;23.60;99.90;;;;;;5072756;28;20029;-72
2023/05/06 11:12:41;;;;;;;9.10;4.47;;;23.40;99.90;;;;;;5072206;28;20029;-71
2023/05/06 11:15:36;;;;;;;;;;;23.40;99.90;;;;;;5072600;28;20456;-71
2023/05/06 11:18:26;;;;;;;9.43;4.50;;;23.40;99.90;;;;;;5072247;28;19948;-72
2023/05/06 11:21:01;;;;;;;8.07;5.40;;;23.70;99.90;;;;;;5063103;28;20036;-73
2023/05/06 11:23:48;;;;;;;9.13;4.93;;;23.80;99.90;;;;;;5070869;28;20392;-72
2023/05/06 11:26:15;;;;;;;9.98;4.97;;;23.60;99.90;;;;;;5072232;28;20028;-72
2023/05/06 11:28:49;;;;;;;8.38;5.25;;;23.40;99.90;;;;;;5072101;28;20028;-72
2023/05/06 11:31:15;;;;;;;11.23;5.90;;;23.70;99.90;;;;;;5104758;28;20036;-75
2023/05/06 11:33:45;;;;;;;;;;;23.90;99.90;;;;;;5072727;28;20016;-70
2023/05/06 11:36:16;;;;;;;10.40;6.10;;;23.50;99.90;;;;;;5071658;28;19908;-73
2023/05/06 11:38:48;;;;;;;9.25;5.55;;;23.50;99.90;;;;;;5072169;28;20028;-75
2023/05/06 11:41:15;;;;;;;8.65;5.32;;;23.60;99.90;;;;;;5072237;28;20107;-73
2023/05/06 11:43:49;;;;;;;9.10;4.90;;;23.80;99.90;;;;;;5072181;28;20123;-76
2023/05/06 11:46:17;;;;;;;12.95;4.78;;;23.70;99.90;;;;;;5072350;28;20032;-75
2023/05/06 11:48:43;;;;;;;7.88;4.35;;;23.80;99.90;;;;;;5072420;28;20031;-77
2023/05/06 11:51:09;;;;;;;7.03;4.57;;;24.00;99.90;;;;;;5071366;28;20032;-74
2023/05/06 11:53:36;;;;;;;7.65;4.53;;;24.30;99.90;;;;;;5072008;28;20024;-78
2023/05/06 11:56:04;;;;;;;9.93;4.65;;;23.70;99.90;;;;;;5071982;28;20029;-76
2023/05/06 11:58:31;;;;;;;6.68;3.95;;;23.90;99.90;;;;;;5104528;28;20051;-76
2023/05/06 12:00:59;;;;;;;6.30;4.50;;;23.90;99.90;;;;;;5104137;28;20396;-72
2023/05/06 12:03:27;;;;;;;8.40;5.00;;;23.70;99.90;;;;;;5071954;28;20373;-74
2023/05/06 12:05:54;;;;;;;7.47;4.53;;;23.70;99.90;;;;;;5071793;28;20520;-74
2023/05/06 12:08:31;;;;;;;10.20;4.70;;;24.00;99.90;;;;;;5071467;28;20040;-74
2023/05/06 12:11:03;;;;;;;6.00;3.88;;;24.20;99.90;;;;;;5071866;28;20031;-72
2023/05/06 12:13:30;;;;;;;7.80;3.85;;;24.60;99.90;;;;;;5071959;28;20087;-71
2023/05/06 12:15:58;;;;;;;7.57;3.85;;;24.90;99.90;;;;;;5072135;28;20409;-72
2023/05/06 12:18:26;;;;;;;6.53;4.55;;;25.00;99.90;;;;;;5072076;28;20048;-70
2023/05/06 12:20:56;;;;;;;10.60;4.85;;;24.40;99.90;;;;;;5103569;28;20170;-73
2023/05/06 12:23:23;;;;;;;5.95;3.75;;;24.60;99.90;;;;;;5071669;28;20090;-74
2023/05/06 12:26:03;;;;;;;6.97;3.60;;;24.90;99.90;;;;;;5071995;28;20043;-76
2023/05/06 12:28:30;;;;;;;8.15;3.95;;;25.00;99.90;;;;;;5072070;28;20039;-73
2023/05/06 12:30:56;;;;;;;9.27;3.20;;;24.90;99.90;;;;;;5072185;28;20368;-72
2023/05/06 12:33:23;;;;;;;5.57;3.55;;;24.80;99.90;;;;;;5072315;28;20029;-73
2023/05/06 12:35:53;;;;;;;5.63;4.10;;;24.70;99.90;;;;;;5072330;28;20082;-73
2023/05/06 12:38:19;;;;;;;13.05;5.95;;;24.70;99.90;;;;;;5071946;28;20052;-74
2023/05/06 12:40:53;;;;;;;6.05;3.15;;;25.10;99.90;;;;;;5071825;28;20472;-73
2023/05/06 12:43:29;;;;;;;6.72;3.00;;;25.40;99.90;;;;;;5104272;28;20066;-73
2023/05/06 12:46:06;;;;;;;4.82;3.00;;;25.20;99.90;;;;;;5071894;28;20029;-73
2023/05/06 12:48:32;;;;;;;6.47;3.00;;;25.30;99.90;;;;;;5071890;28;20476;-73
2023/05/06 12:50:58;;;;;;;5.30;2.75;;;25.20;99.90;;;;;;5071968;28;20025;-73
2023/05/06 12:53:32;;;;;;;5.20;2.80;;;25.00;99.90;;;;;;5071380;28;20105;-74
2023/05/06 12:55:58;;;;;;;6.45;2.67;;;24.80;99.90;;;;;;5071963;28;20046;-73